Time;durP1;ratioP1;P1;durP2;ratioP2;P2;SDS_P1;SDS_P2;PMS_P1;PMS_P2;Temp;Humidity;BMP_temperature;BMP_pressure;BME280_temperature;BME280_humidity;BME280_pressure;Samples;Min_cycle;Max_cycle;Signal;HPM_P1;HPM_P2
2024/03/12 00:02:25;;;;;;;41.25;16.63;;;5.30;99.90;;;;;;5013820;28;20026;-92
2024/03/12 00:04:50;;;;;;;34.72;15.70;;;5.30;99.90;;;;;;5013835;28;20022;-92
2024/03/12 00:07:22;;;;;;;39.10;18.23;;;5.30;99.90;;;;;;5012962;28;20033;-94
2024/03/12 00:09:48;;;;;;;46.15;19.95;;;5.30;99.90;;;;;;4995086;28;20129;-93
2024/03/12 00:12:13;;;;;;;43.13;18.98;;;5.30;99.90;;;;;;5012551;28;20050;-92
2024/03/12 00:14:42;;;;;;;42.65;18.65;;;5.30;99.90;;;;;;4995478;28;20026;-96
2024/03/12 00:17:08;;;;;;;35.00;16.20;;;5.30;99.90;;;;;;5013401;28;20022;-93
2024/03/12 00:19:34;;;;;;;41.10;19.85;;;5.20;99.90;;;;;;5013075;28;20030;-92
2024/03/12 00:22:00;;;;;;;42.75;19.45;;;5.20;99.90;;;;;;4996212;28;20053;-92
2024/03/12 00:24:25;;;;;;;45.33;18.67;;;5.20;99.90;;;;;;5013260;28;20022;-92
2024/03/12 00:26:52;;;;;;;42.10;18.67;;;5.20;99.90;;;;;;5013622;28;20018;-92
2024/03/12 00:29:19;;;;;;;41.47;18.25;;;5.20;99.90;;;;;;5013039;28;20033;-90
2024/03/12 00:31:45;;;;;;;36.67;16.30;;;5.20;99.90;;;;;;5013476;28;20022;-91
2024/03/12 00:34:11;;;;;;;37.13;14.85;;;5.20;99.90;;;;;;5013473;28;20045;-92
2024/03/12 00:36:37;;;;;;;31.77;15.40;;;5.20;99.90;;;;;;5014692;28;20022;-91
2024/03/12 00:39:02;;;;;;;42.75;18.13;;;5.10;99.90;;;;;;4999462;28;20076;-91
2024/03/12 00:41:29;;;;;;;44.38;18.63;;;5.10;99.90;;;;;;4999445;28;20369;-91
2024/03/12 00:43:54;;;;;;;44.78;19.98;;;5.10;99.90;;;;;;4999476;28;20026;-91
2024/03/12 00:46:21;;;;;;;33.95;16.02;;;5.10;99.90;;;;;;5016395;28;20577;-93
2024/03/12 00:48:47;;;;;;;39.08;17.05;;;5.10;99.90;;;;;;5016401;28;20520;-93
2024/03/12 00:51:13;;;;;;;42.95;18.73;;;5.10;99.90;;;;;;5017473;28;20112;-93
2024/03/12 00:53:39;;;;;;;39.17;17.30;;;5.10;99.90;;;;;;5016778;28;20061;-91
2024/03/12 00:56:04;;;;;;;50.05;21.02;;;5.00;99.90;;;;;;5017170;28;20029;-93
2024/03/12 00:58:33;;;;;;;42.88;18.60;;;5.10;99.90;;;;;;5017202;28;20077;-93
2024/03/12 01:00:59;;;;;;;36.65;16.45;;;5.00;99.90;;;;;;5000059;28;20034;-93
2024/03/12 01:03:26;;;;;;;41.50;18.20;;;5.00;99.90;;;;;;4999889;28;20484;-93
2024/03/12 01:05:53;;;;;;;48.17;20.17;;;5.00;99.90;;;;;;4999457;28;20018;-92
2024/03/12 01:08:20;;;;;;;42.38;19.00;;;5.00;99.90;;;;;;5017769;28;20060;-94
2024/03/12 01:10:46;;;;;;;48.70;21.40;;;5.00;99.90;;;;;;5017150;28;20104;-90
2024/03/12 01:13:12;;;;;;;54.17;21.23;;;5.00;99.90;;;;;;5018205;28;20472;-94
2024/03/12 01:15:39;;;;;;;32.80;15.20;;;5.00;99.90;;;;;;5002389;28;20444;-94
2024/03/12 01:18:04;;;;;;;52.13;21.20;;;4.90;99.90;;;;;;5002001;28;20018;-91
2024/03/12 01:20:33;;;;;;;50.22;21.23;;;4.90;99.90;;;;;;5017032;28;20168;-93
2024/03/12 01:22:59;;;;;;;49.42;20.77;;;4.90;99.90;;;;;;5015874;28;20025;-94
2024/03/12 01:25:25;;;;;;;57.13;21.92;;;4.90;99.90;;;;;;5016337;28;20026;-94
2024/03/12 01:27:55;;;;;;;47.33;20.30;;;4.90;99.90;;;;;;4999247;28;20038;-95
2024/03/12 01:30:26;;;;;;;43.97;20.08;;;4.90;99.90;;;;;;5015487;28;20025;-93
2024/03/12 01:32:52;;;;;;;43.00;19.10;;;4.80;99.90;;;;;;5016111;28;20080;-94
2024/03/12 01:35:20;;;;;;;54.22;20.73;;;4.80;99.90;;;;;;4998867;28;20029;-92
2024/03/12 01:37:49;;;;;;;44.60;18.45;;;4.90;99.90;;;;;;4998495;28;20044;-93
2024/03/12 01:40:22;;;;;;;40.15;18.98;;;4.80;99.90;;;;;;5016327;28;20022;-94
2024/03/12 01:42:57;;;;;;;50.47;21.40;;;4.80;99.90;;;;;;5018384;28;20082;-94
2024/03/12 01:45:24;;;;;;;48.60;19.38;;;4.80;99.90;;;;;;5017760;28;20049;-92
2024/03/12 01:47:54;;;;;;;41.92;18.60;;;4.80;99.90;;;;;;5016704;28;20030;-93
2024/03/12 01:50:21;;;;;;;45.40;19.52;;;4.80;99.90;;;;;;5000271;28;20120;-94
2024/03/12 01:52:47;;;;;;;49.00;20.73;;;4.80;99.90;;;;;;5015007;28;20468;-92
2024/03/12 01:55:18;;;;;;;42.17;17.85;;;4.80;99.90;;;;;;4997287;28;20367;-93
2024/03/12 01:57:48;;;;;;;45.20;19.77;;;4.80;99.90;;;;;;4996677;28;20059;-94
2024/03/12 02:00:15;;;;;;;52.53;21.08;;;4.80;99.90;;;;;;5015110;28;20065;-95
2024/03/12 02:02:50;;;;;;;51.22;20.92;;;4.80;99.90;;;;;;5014507;28;20029;-94
2024/03/12 02:05:16;;;;;;;44.88;18.80;;;4.80;99.90;;;;;;5013913;28;20026;-92
2024/03/12 02:07:48;;;;;;;53.92;19.85;;;4.80;99.90;;;;;;5014483;28;20022;-92
2024/03/12 02:10:14;;;;;;;43.75;19.08;;;4.80;99.90;;;;;;5013960;28;20089;-94
2024/03/12 02:12:41;;;;;;;47.90;20.38;;;4.80;99.90;;;;;;4996904;28;20029;-93
2024/03/12 02:15:08;;;;;;;49.38;21.40;;;4.70;99.90;;;;;;5016427;28;20088;-92
2024/03/12 02:17:34;;;;;;;38.58;16.92;;;4.80;99.90;;;;;;4998476;28;20030;-92
2024/03/12 02:20:00;;;;;;;47.33;20.45;;;4.70;99.90;;;;;;5015459;28;20085;-92
2024/03/12 02:22:30;;;;;;;39.15;17.30;;;4.80;99.90;;;;;;4996439;28;20060;-93
2024/03/12 02:24:58;;;;;;;54.50;24.27;;;4.70;99.90;;;;;;4995901;28;20022;-94
2024/03/12 02:27:25;;;;;;;49.60;21.65;;;4.70;99.90;;;;;;5013981;28;20018;-93
2024/03/12 02:29:50;;;;;;;52.53;21.00;;;4.70;99.90;;;;;;4997177;28;20037;-93
2024/03/12 02:32:17;;;;;;;43.65;19.55;;;4.80;99.90;;;;;;5000578;28;20036;-93
2024/03/12 02:34:43;;;;;;;39.90;17.13;;;4.80;99.90;;;;;;5014644;28;20049;-93
2024/03/12 02:37:09;;;;;;;57.03;23.08;;;4.70;99.90;;;;;;5014994;28;20104;-93
2024/03/12 02:39:35;;;;;;;50.78;21.52;;;4.70;99.90;;;;;;4997366;28;20205;-93
2024/03/12 02:42:01;;;;;;;62.65;24.77;;;4.80;99.90;;;;;;5014402;28;20101;-93
2024/03/12 02:44:26;;;;;;;58.40;23.38;;;4.80;99.90;;;;;;4997312;28;20033;-92
2024/03/12 02:46:54;;;;;;;46.85;20.00;;;4.80;99.90;;;;;;4986680;28;335727;-95
2024/03/12 02:49:20;;;;;;;60.95;24.08;;;4.70;99.90;;;;;;5015096;28;20496;-93
2024/03/12 02:51:46;;;;;;;50.15;21.48;;;4.70;99.90;;;;;;4997314;28;20188;-95
2024/03/12 02:54:20;;;;;;;55.42;23.42;;;4.70;99.90;;;;;;5014312;28;20146;-93
2024/03/12 02:56:46;;;;;;;49.78;20.75;;;4.70;99.90;;;;;;5014908;28;20088;-93
2024/03/12 02:59:12;;;;;;;47.95;19.83;;;4.70;99.90;;;;;;5014219;28;20256;-93
2024/03/12 03:01:38;;;;;;;55.63;22.77;;;4.70;99.90;;;;;;5017191;28;20029;-93
2024/03/12 03:04:04;;;;;;;61.38;26.75;;;4.70;99.90;;;;;;5023917;28;20034;-92
2024/03/12 03:06:30;;;;;;;52.00;23.38;;;4.70;99.90;;;;;;5013480;28;20026;-93
2024/03/12 03:08:58;;;;;;;67.68;26.10;;;4.80;99.90;;;;;;5008386;28;20500;-95
2024/03/12 03:11:24;;;;;;;73.30;28.20;;;4.80;99.90;;;;;;5022754;28;20018;-94
2024/03/12 03:13:50;;;;;;;57.42;23.80;;;4.80;99.90;;;;;;5006019;28;20025;-89
2024/03/12 03:16:17;;;;;;;42.92;18.95;;;4.80;99.90;;;;;;5020524;28;20060;-88
2024/03/12 03:18:43;;;;;;;69.55;26.52;;;4.80;99.90;;;;;;5033433;28;20030;-89
2024/03/12 03:21:09;;;;;;;73.65;28.48;;;4.80;99.90;;;;;;5016919;28;20025;-94
2024/03/12 03:23:39;;;;;;;60.05;24.45;;;4.80;99.90;;;;;;5008182;28;20025;-91
2024/03/12 03:26:05;;;;;;;60.78;23.85;;;4.80;99.90;;;;;;5027818;28;20033;-94
2024/03/12 03:28:31;;;;;;;59.40;23.58;;;4.80;99.90;;;;;;5017421;28;20041;-93
2024/03/12 03:30:59;;;;;;;55.90;22.92;;;4.80;99.90;;;;;;4999690;28;20088;-94
2024/03/12 03:33:25;;;;;;;59.78;24.55;;;4.80;99.90;;;;;;5018144;28;20083;-94
2024/03/12 03:35:51;;;;;;;54.70;21.48;;;4.80;99.90;;;;;;5018938;28;20045;-91
2024/03/12 03:38:19;;;;;;;63.90;24.10;;;4.80;99.90;;;;;;4999434;28;20022;-91
2024/03/12 03:40:47;;;;;;;63.05;22.80;;;4.80;99.90;;;;;;5017133;28;20022;-92
2024/03/12 03:43:13;;;;;;;53.20;22.13;;;4.80;99.90;;;;;;4998125;28;20399;-91
2024/03/12 03:45:38;;;;;;;63.88;23.92;;;4.80;99.90;;;;;;4997837;28;20100;-93
2024/03/12 03:48:05;;;;;;;61.33;23.80;;;4.80;99.90;;;;;;5014975;28;20431;-93
2024/03/12 03:50:30;;;;;;;59.05;24.42;;;4.80;99.90;;;;;;4997251;28;20072;-91
2024/03/12 03:52:56;;;;;;;67.15;25.92;;;4.90;99.90;;;;;;5014918;28;20030;-93
2024/03/12 03:55:23;;;;;;;64.75;26.13;;;4.80;99.90;;;;;;5014519;28;20030;-93
2024/03/12 03:57:49;;;;;;;65.95;24.25;;;4.90;99.90;;;;;;4997048;28;20060;-91
2024/03/12 04:00:17;;;;;;;63.15;24.33;;;4.90;99.90;;;;;;4997707;28;20018;-92
2024/03/12 04:02:44;;;;;;;84.68;30.40;;;4.90;99.90;;;;;;4997400;28;20038;-91
2024/03/12 04:05:11;;;;;;;70.43;25.42;;;4.90;99.90;;;;;;4996264;28;20030;-91
2024/03/12 04:07:37;;;;;;;79.32;27.95;;;4.90;99.90;;;;;;4996736;28;20507;-91
2024/03/12 04:10:04;;;;;;;68.93;26.42;;;4.90;99.90;;;;;;4997215;28;20033;-92
2024/03/12 04:12:30;;;;;;;57.28;22.90;;;4.90;99.90;;;;;;5017241;28;20026;-93
2024/03/12 04:14:57;;;;;;;68.15;25.70;;;5.00;99.90;;;;;;4999926;28;20036;-92
2024/03/12 04:17:23;;;;;;;78.03;27.40;;;5.00;99.90;;;;;;5017743;28;20028;-93
2024/03/12 04:19:49;;;;;;;65.25;25.90;;;5.00;99.90;;;;;;5000167;28;20038;-92
2024/03/12 04:22:19;;;;;;;62.70;25.17;;;5.00;99.90;;;;;;5001221;28;20045;-92
2024/03/12 04:24:45;;;;;;;73.80;28.27;;;5.10;99.90;;;;;;5000064;28;20026;-92
2024/03/12 04:27:14;;;;;;;62.50;25.73;;;5.10;99.90;;;;;;5018109;28;20080;-92
2024/03/12 04:29:41;;;;;;;62.73;26.93;;;5.10;99.90;;;;;;5000104;28;20045;-92
2024/03/12 04:32:06;;;;;;;72.38;26.67;;;5.10;99.90;;;;;;5017504;28;20026;-91
2024/03/12 04:34:33;;;;;;;71.22;27.23;;;5.10;99.90;;;;;;5016968;28;20034;-93
2024/03/12 04:37:00;;;;;;;73.40;26.88;;;5.10;99.90;;;;;;5017950;28;20022;-92
2024/03/12 04:39:32;;;;;;;78.78;26.80;;;5.20;99.90;;;;;;5016801;28;20069;-91
2024/03/12 04:42:02;;;;;;;71.03;26.98;;;5.20;99.90;;;;;;5017017;28;20049;-90
2024/03/12 04:44:31;;;;;;;68.50;25.88;;;5.20;99.90;;;;;;5017424;28;20022;-92
2024/03/12 04:46:57;;;;;;;60.05;25.67;;;5.20;99.90;;;;;;5017450;28;20053;-93
2024/03/12 04:49:23;;;;;;;68.65;26.98;;;5.20;99.90;;;;;;5017578;28;20038;-93
2024/03/12 04:51:50;;;;;;;75.22;27.92;;;5.20;99.90;;;;;;5017445;28;20036;-93
2024/03/12 04:54:17;;;;;;;58.70;23.85;;;5.20;99.90;;;;;;5000147;28;20021;-93
2024/03/12 04:56:43;;;;;;;63.97;25.80;;;5.30;99.90;;;;;;5016633;28;20018;-94
2024/03/12 04:59:09;;;;;;;65.90;25.95;;;5.30;99.90;;;;;;5017143;28;20534;-93
2024/03/12 05:01:35;;;;;;;69.50;27.30;;;5.30;99.90;;;;;;5017479;28;20060;-91
2024/03/12 05:04:00;;;;;;;73.82;27.45;;;5.30;99.90;;;;;;4999700;28;20065;-92
2024/03/12 05:06:26;;;;;;;77.43;29.05;;;5.30;99.90;;;;;;5017259;28;20049;-92
2024/03/12 05:08:53;;;;;;;71.10;28.50;;;5.30;99.90;;;;;;5016944;28;20372;-93
2024/03/12 05:11:19;;;;;;;72.15;27.48;;;5.30;99.90;;;;;;4999887;28;20387;-90
2024/03/12 05:13:45;;;;;;;63.67;25.83;;;5.30;99.90;;;;;;4998661;28;20021;-92
2024/03/12 05:16:11;;;;;;;74.00;29.38;;;5.30;99.90;;;;;;5002375;28;20026;-94
2024/03/12 05:18:37;;;;;;;73.60;28.17;;;5.30;99.90;;;;;;4998453;28;20056;-91
2024/03/12 05:21:03;;;;;;;79.03;29.85;;;5.40;99.90;;;;;;5016574;28;20029;-91
2024/03/12 05:23:28;;;;;;;77.38;29.17;;;5.30;99.90;;;;;;4999342;28;20061;-92
2024/03/12 05:25:54;;;;;;;80.20;29.77;;;5.40;99.90;;;;;;5016582;28;20026;-93
2024/03/12 05:28:20;;;;;;;72.00;27.75;;;5.30;99.90;;;;;;4999926;28;20430;-93
2024/03/12 05:30:48;;;;;;;75.13;28.15;;;5.40;99.90;;;;;;4998904;28;20017;-93
2024/03/12 05:33:15;;;;;;;78.45;29.42;;;5.40;99.90;;;;;;4999213;28;20033;-92
2024/03/12 05:35:47;;;;;;;74.28;28.23;;;5.40;99.90;;;;;;4999708;28;20053;-93
2024/03/12 05:49:06;;;;;;;70.60;28.00;;;5.40;99.90;;;;;;4977068;28;20661;-93
2024/03/12 05:51:34;;;;;;;70.00;26.80;;;5.40;99.90;;;;;;4976371;28;20027;-93
2024/03/12 05:54:00;;;;;;;73.80;27.48;;;5.40;99.90;;;;;;4976821;28;20034;-92
2024/03/12 05:56:26;;;;;;;84.60;29.13;;;5.40;99.90;;;;;;4976388;28;20118;-92
2024/03/12 05:58:52;;;;;;;71.78;27.35;;;5.40;99.90;;;;;;4975942;28;20488;-92
2024/03/12 06:01:17;;;;;;;78.18;29.88;;;5.40;99.90;;;;;;4974937;28;20031;-93
2024/03/12 06:03:43;;;;;;;68.38;28.13;;;5.40;99.90;;;;;;4976896;28;20038;-92
2024/03/12 06:06:09;;;;;;;77.13;27.83;;;5.40;99.90;;;;;;4958920;28;20094;-93
2024/03/12 06:08:35;;;;;;;72.93;26.35;;;5.40;99.90;;;;;;4974683;28;20467;-92
2024/03/12 06:11:01;;;;;;;64.95;25.17;;;5.40;99.90;;;;;;4958879;28;20556;-91
2024/03/12 06:13:27;;;;;;;69.88;26.70;;;5.40;99.90;;;;;;4973966;28;20066;-91
2024/03/12 06:15:53;;;;;;;75.25;27.20;;;5.40;99.90;;;;;;4957644;28;20051;-93
2024/03/12 06:18:19;;;;;;;67.00;24.33;;;5.40;99.90;;;;;;4990567;28;20141;-91
2024/03/12 06:20:49;;;;;;;67.30;25.40;;;5.40;99.90;;;;;;5015147;28;20026;-91
2024/03/12 06:23:15;;;;;;;61.45;22.98;;;5.40;99.90;;;;;;4996951;28;20022;-92
2024/03/12 06:25:41;;;;;;;63.33;24.38;;;5.40;99.90;;;;;;4997138;28;20030;-88
2024/03/12 06:28:07;;;;;;;60.20;24.25;;;5.40;99.90;;;;;;5003663;28;20061;-91
2024/03/12 06:30:35;;;;;;;68.15;22.65;;;5.40;99.90;;;;;;5004065;28;20407;-92
2024/03/12 06:33:04;;;;;;;54.92;23.67;;;5.40;99.90;;;;;;5004984;28;20068;-92
2024/03/12 06:35:30;;;;;;;57.22;22.73;;;5.50;99.90;;;;;;5018320;28;20113;-91
2024/03/12 06:37:58;;;;;;;59.63;22.15;;;5.40;99.90;;;;;;4998953;28;20072;-91
2024/03/12 06:40:25;;;;;;;59.00;22.08;;;5.50;99.90;;;;;;5016141;28;20141;-90
2024/03/12 06:42:51;;;;;;;49.33;20.00;;;5.50;99.90;;;;;;4997955;28;20022;-90
2024/03/12 06:45:17;;;;;;;53.80;20.27;;;5.40;99.90;;;;;;4996359;28;20045;-90
2024/03/12 06:47:46;;;;;;;54.33;19.65;;;5.50;99.90;;;;;;4996552;28;20068;-90
2024/03/12 06:50:12;;;;;;;45.10;18.63;;;5.50;99.90;;;;;;4996741;28;20060;-90
2024/03/12 06:52:38;;;;;;;42.00;16.48;;;5.50;99.90;;;;;;4996677;28;20412;-91
2024/03/12 06:55:12;;;;;;;44.92;17.48;;;5.50;99.90;;;;;;4996841;28;20045;-91
2024/03/12 06:57:52;;;;;;;39.15;16.52;;;5.50;99.90;;;;;;4994420;28;20459;-91
2024/03/12 07:00:36;;;;;;;35.40;15.73;;;5.50;99.90;;;;;;5011352;28;20017;-91
2024/03/12 07:03:05;;;;;;;35.95;15.15;;;5.50;99.90;;;;;;4994901;28;20073;-91
2024/03/12 07:05:33;;;;;;;36.40;14.88;;;5.50;99.90;;;;;;4996060;28;20026;-91
2024/03/12 07:07:59;;;;;;;32.42;13.82;;;5.50;99.90;;;;;;5013242;28;20547;-90
2024/03/12 07:10:26;;;;;;;34.75;14.88;;;5.50;99.90;;;;;;4995659;28;20030;-90
2024/03/12 07:12:52;;;;;;;37.65;15.07;;;5.50;99.90;;;;;;4995229;28;20502;-91
2024/03/12 07:15:19;;;;;;;38.95;14.95;;;5.60;99.90;;;;;;4996003;28;20061;-90
2024/03/12 07:17:45;;;;;;;33.47;13.50;;;5.60;99.90;;;;;;4995011;28;20026;-92
2024/03/12 07:20:14;;;;;;;32.92;14.60;;;5.60;99.90;;;;;;5013546;28;20030;-92
2024/03/12 07:22:42;;;;;;;31.88;13.18;;;5.60;99.90;;;;;;4996107;28;20029;-89
2024/03/12 07:25:10;;;;;;;26.65;12.63;;;5.60;99.90;;;;;;4995712;28;20029;-92
2024/03/12 07:27:37;;;;;;;28.25;12.65;;;5.60;99.90;;;;;;4995427;28;20509;-92
2024/03/12 07:30:03;;;;;;;28.40;12.63;;;5.60;99.90;;;;;;4996824;28;20446;-92
2024/03/12 07:32:30;;;;;;;30.38;12.45;;;5.70;99.90;;;;;;5013235;28;20014;-92
2024/03/12 07:34:56;;;;;;;31.83;12.93;;;5.70;99.90;;;;;;4992965;28;20503;-92
2024/03/12 07:37:21;;;;;;;27.15;12.02;;;5.70;99.90;;;;;;5013420;28;20045;-91
2024/03/12 07:39:47;;;;;;;32.10;13.05;;;5.70;99.90;;;;;;5013543;28;20030;-92
2024/03/12 07:42:18;;;;;;;32.72;12.90;;;5.70;99.90;;;;;;5016111;28;20022;-92
2024/03/12 07:44:47;;;;;;;29.20;12.13;;;5.70;99.90;;;;;;5012679;28;20097;-91
2024/03/12 07:47:17;;;;;;;28.33;12.63;;;5.80;99.90;;;;;;5014179;28;20022;-91
2024/03/12 07:49:42;;;;;;;26.85;12.38;;;5.80;99.90;;;;;;4999521;28;20045;-92
2024/03/12 07:52:12;;;;;;;28.23;12.25;;;5.80;99.90;;;;;;4999499;28;20022;-92
2024/03/12 07:54:38;;;;;;;25.38;10.27;;;5.80;99.90;;;;;;5012692;28;20026;-92
2024/03/12 07:57:11;;;;;;;23.98;10.88;;;5.80;99.90;;;;;;5015831;28;20029;-92
2024/03/12 07:59:37;;;;;;;24.10;11.13;;;5.90;99.90;;;;;;5002947;28;20018;-91
2024/03/12 08:02:22;;;;;;;22.15;9.43;;;5.90;99.90;;;;;;5018173;28;20034;-91
2024/03/12 08:04:47;;;;;;;21.50;9.90;;;5.90;99.90;;;;;;5016950;28;20497;-93
2024/03/12 08:07:14;;;;;;;20.23;10.75;;;5.90;99.90;;;;;;5016710;28;20108;-93
2024/03/12 08:09:43;;;;;;;21.58;9.73;;;5.90;99.90;;;;;;5017435;28;20038;-91
2024/03/12 08:12:13;;;;;;;21.48;9.77;;;5.90;99.90;;;;;;5017596;28;20383;-92
2024/03/12 08:14:40;;;;;;;19.55;9.75;;;5.90;99.90;;;;;;5017278;28;20057;-92
2024/03/12 08:17:07;;;;;;;18.35;8.80;;;5.90;99.90;;;;;;5017351;28;20022;-92
2024/03/12 08:19:34;;;;;;;18.42;8.25;;;6.00;99.90;;;;;;5017031;28;20025;-91
2024/03/12 08:22:02;;;;;;;15.30;7.93;;;6.00;99.90;;;;;;5019074;28;20034;-93
2024/03/12 08:24:29;;;;;;;14.88;6.97;;;6.00;99.90;;;;;;5018261;28;20018;-89
2024/03/12 08:26:55;;;;;;;15.23;7.75;;;6.00;99.90;;;;;;4990922;28;20393;-92
2024/03/12 08:29:21;;;;;;;14.70;8.07;;;6.10;99.90;;;;;;4994391;28;20487;-89
2024/03/12 08:31:47;;;;;;;13.13;7.20;;;6.10;99.90;;;;;;5016234;28;20053;-90
2024/03/12 08:34:15;;;;;;;16.00;6.90;;;6.10;99.90;;;;;;5017060;28;20034;-90
2024/03/12 08:36:41;;;;;;;15.35;6.40;;;6.10;99.90;;;;;;4998977;28;20026;-90
2024/03/12 08:39:07;;;;;;;12.55;7.13;;;6.10;99.90;;;;;;4998388;28;20032;-90
2024/03/12 08:41:33;;;;;;;11.93;5.97;;;6.10;99.90;;;;;;5018927;28;20030;-88
2024/03/12 08:43:58;;;;;;;12.25;6.82;;;6.10;99.90;;;;;;5030683;28;20077;-89
2024/03/12 08:46:24;;;;;;;10.52;6.00;;;6.20;99.90;;;;;;5028726;28;20061;-90
2024/03/12 08:48:52;;;;;;;10.82;5.40;;;6.20;99.90;;;;;;5025905;28;20060;-90
2024/03/12 08:51:18;;;;;;;9.60;5.00;;;6.20;99.90;;;;;;4997346;28;20030;-89
2024/03/12 08:53:44;;;;;;;9.35;4.97;;;6.20;99.90;;;;;;5017813;28;20105;-88
2024/03/12 08:56:09;;;;;;;9.45;5.65;;;6.20;99.90;;;;;;5017927;28;20030;-89
2024/03/12 08:58:35;;;;;;;7.88;4.57;;;6.20;99.90;;;;;;5015266;28;20080;-90
2024/03/12 09:01:01;;;;;;;9.27;5.13;;;6.20;99.90;;;;;;5015377;28;20025;-88
2024/03/12 09:03:26;;;;;;;7.35;4.90;;;6.30;99.90;;;;;;5015328;28;20181;-90
2024/03/12 09:05:52;;;;;;;7.53;4.95;;;6.30;99.90;;;;;;5015630;28;20034;-90
2024/03/12 09:08:18;;;;;;;8.70;4.70;;;6.30;99.90;;;;;;4998695;28;20049;-90
2024/03/12 09:10:47;;;;;;;7.88;4.78;;;6.30;99.90;;;;;;5015648;28;20018;-90
2024/03/12 09:13:16;;;;;;;7.65;4.18;;;6.30;99.90;;;;;;4995859;28;20021;-90
2024/03/12 09:15:44;;;;;;;7.10;4.20;;;6.40;99.90;;;;;;4998310;28;20095;-90
2024/03/12 09:18:10;;;;;;;6.53;4.13;;;6.40;99.90;;;;;;5008688;28;20159;-90
2024/03/12 09:20:39;;;;;;;7.68;4.55;;;6.40;99.90;;;;;;5001298;28;20018;-90
2024/03/12 09:23:05;;;;;;;7.70;4.30;;;6.50;99.90;;;;;;5015834;28;20045;-89
2024/03/12 09:25:30;;;;;;;6.47;4.30;;;6.40;99.90;;;;;;5016210;28;20080;-90
2024/03/12 09:27:56;;;;;;;7.03;3.90;;;6.50;99.90;;;;;;4998034;28;20038;-90
2024/03/12 09:30:23;;;;;;;7.13;4.50;;;6.50;99.90;;;;;;4998389;28;20104;-90
2024/03/12 09:32:51;;;;;;;8.35;4.05;;;6.50;99.90;;;;;;5013861;28;20022;-90
2024/03/12 09:35:18;;;;;;;6.72;4.55;;;6.50;99.90;;;;;;4998119;28;20037;-89
2024/03/12 09:37:45;;;;;;;7.28;4.50;;;6.60;99.90;;;;;;5014965;28;20026;-90
2024/03/12 09:40:13;;;;;;;6.47;4.15;;;6.60;99.90;;;;;;5015654;28;20022;-91
2024/03/12 09:42:44;;;;;;;6.32;4.00;;;6.60;99.90;;;;;;5015999;28;20105;-91
2024/03/12 09:45:11;;;;;;;9.93;4.70;;;6.60;99.90;;;;;;4991875;28;20632;-87
2024/03/12 09:47:36;;;;;;;7.57;4.35;;;6.70;99.90;;;;;;5007260;28;20034;-89
2024/03/12 09:50:06;;;;;;;5.95;3.85;;;6.70;99.90;;;;;;5012184;28;20117;-90
2024/03/12 09:52:33;;;;;;;5.68;4.03;;;6.70;99.90;;;;;;5016279;28;20014;-91
2024/03/12 09:54:59;;;;;;;5.57;3.58;;;6.80;99.90;;;;;;5016176;28;20030;-89
2024/03/12 09:57:27;;;;;;;5.28;3.88;;;6.80;99.90;;;;;;5014505;28;20060;-91
2024/03/12 09:59:53;;;;;;;5.07;2.88;;;6.80;99.90;;;;;;4999492;28;20064;-91
2024/03/12 10:02:20;;;;;;;3.33;2.65;;;6.90;99.90;;;;;;4997416;28;20033;-91
2024/03/12 10:04:49;;;;;;;4.22;2.58;;;6.90;99.90;;;;;;5014260;28;20022;-90
2024/03/12 10:07:16;;;;;;;3.40;2.33;;;7.00;99.90;;;;;;4997051;28;20025;-90
2024/03/12 10:09:42;;;;;;;3.15;2.17;;;7.00;99.90;;;;;;4996386;28;20034;-90
2024/03/12 10:12:09;;;;;;;3.08;2.10;;;7.00;99.90;;;;;;5013956;28;20435;-91
2024/03/12 10:14:35;;;;;;;3.05;1.90;;;7.10;99.90;;;;;;4996698;28;20030;-91
2024/03/12 10:17:13;;;;;;;2.65;1.90;;;7.10;99.90;;;;;;4996971;28;20044;-91
2024/03/12 10:19:47;;;;;;;4.05;2.08;;;7.20;99.90;;;;;;4998293;28;20030;-90
2024/03/12 10:22:20;;;;;;;2.95;2.15;;;7.20;99.90;;;;;;5014223;28;20029;-92
2024/03/12 10:24:47;;;;;;;8.43;2.20;;;7.30;99.90;;;;;;5010395;28;20034;-92
2024/03/12 10:27:14;;;;;;;2.97;2.10;;;7.30;99.90;;;;;;5013592;28;20017;-92
2024/03/12 10:29:40;;;;;;;4.00;2.35;;;7.30;99.90;;;;;;5013820;28;20037;-91
2024/03/12 10:32:21;;;;;;;6.22;2.50;;;7.40;99.90;;;;;;4996410;28;20076;-92
2024/03/12 10:34:47;;;;;;;5.53;2.70;;;7.50;99.90;;;;;;5015814;28;20029;-92
2024/03/12 10:37:51;;;;;;;5.57;3.28;;;7.50;99.90;;;;;;5017471;28;20093;-91
2024/03/12 10:40:20;;;;;;;6.32;2.75;;;7.60;99.90;;;;;;4957709;28;20030;-91
2024/03/12 10:42:54;;;;;;;9.20;3.13;;;7.60;99.90;;;;;;5014414;28;20034;-90
2024/03/12 10:45:21;;;;;;;4.90;3.47;;;7.70;99.90;;;;;;4992832;28;20120;-90
2024/03/12 10:47:48;;;;;;;3.83;2.78;;;7.70;99.90;;;;;;4994139;28;20033;-90
2024/03/12 10:50:16;;;;;;;3.60;2.63;;;7.80;99.90;;;;;;4994337;28;20530;-91
2024/03/12 10:52:45;;;;;;;4.75;3.25;;;7.80;99.90;;;;;;4993300;28;20018;-90
2024/03/12 10:55:20;;;;;;;4.40;3.50;;;7.90;99.90;;;;;;4993762;28;20026;-90
2024/03/12 10:57:58;;;;;;;5.75;3.80;;;7.90;99.90;;;;;;4991852;28;20026;-92
2024/03/12 11:00:28;;;;;;;5.45;3.63;;;8.00;99.90;;;;;;4992739;28;20069;-90
2024/03/12 11:02:54;;;;;;;6.47;4.20;;;8.10;99.90;;;;;;4993433;28;20018;-91
2024/03/12 11:05:21;;;;;;;6.32;4.10;;;8.10;99.90;;;;;;5008491;28;20432;-91
2024/03/12 11:07:48;;;;;;;6.20;4.57;;;8.20;99.90;;;;;;4992598;28;20117;-90
2024/03/12 11:10:14;;;;;;;10.07;5.65;;;8.40;99.90;;;;;;4992836;28;20065;-91
2024/03/12 11:12:43;;;;;;;7.15;5.13;;;8.60;99.90;;;;;;4994006;28;20022;-90
2024/03/12 11:15:10;;;;;;;7.88;5.10;;;8.90;99.90;;;;;;4994446;28;20050;-91
2024/03/12 11:17:39;;;;;;;5.72;4.03;;;9.20;99.90;;;;;;4994188;28;20461;-91
2024/03/12 11:20:06;;;;;;;4.90;3.95;;;9.60;99.90;;;;;;4993270;28;20034;-91
2024/03/12 11:22:35;;;;;;;7.25;4.22;;;10.00;99.90;;;;;;4992351;28;20106;-91
2024/03/12 11:25:08;;;;;;;6.40;3.97;;;10.40;99.90;;;;;;4991075;28;20381;-90
2024/03/12 11:27:37;;;;;;;4.60;3.28;;;10.70;99.90;;;;;;4991979;28;20057;-91
2024/03/12 11:30:14;;;;;;;5.30;3.22;;;10.90;99.90;;;;;;4992535;28;20034;-91
2024/03/12 11:32:50;;;;;;;5.18;3.42;;;11.10;99.90;;;;;;4992754;28;20030;-90
2024/03/12 11:35:21;;;;;;;7.47;3.60;;;11.20;99.90;;;;;;4992591;28;20451;-92
2024/03/12 11:37:59;;;;;;;4.75;3.33;;;11.30;99.90;;;;;;4991974;28;20566;-91
2024/03/12 11:40:27;;;;;;;4.28;3.40;;;11.40;99.90;;;;;;4991874;28;20026;-91
2024/03/12 11:42:59;;;;;;;7.78;3.58;;;11.50;99.90;;;;;;4992354;28;20097;-90
2024/03/12 11:45:34;;;;;;;6.45;3.75;;;11.40;99.90;;;;;;4999159;28;20523;-91
2024/03/12 11:48:00;;;;;;;5.30;3.65;;;11.50;99.90;;;;;;5013266;28;20022;-91
2024/03/12 11:50:39;;;;;;;6.22;3.03;;;11.50;99.90;;;;;;5013539;28;20037;-92
2024/03/12 11:53:14;;;;;;;16.02;7.03;;;11.50;99.90;;;;;;4994462;28;20113;-90
2024/03/12 11:55:55;;;;;;;12.18;5.68;;;11.70;99.90;;;;;;5012847;28;20109;-92
2024/03/12 11:58:25;;;;;;;9.95;5.18;;;11.90;99.90;;;;;;5013112;28;20068;-90
2024/03/12 12:00:50;;;;;;;10.48;3.75;;;12.10;99.90;;;;;;5013160;28;20022;-89
2024/03/12 12:03:16;;;;;;;6.28;3.00;;;12.40;99.90;;;;;;5013229;28;20149;-93
2024/03/12 12:05:45;;;;;;;8.63;2.70;;;12.60;99.90;;;;;;5013076;28;20022;-90
2024/03/12 12:08:11;;;;;;;9.75;2.97;;;12.80;99.90;;;;;;5012656;28;20022;-90
2024/03/12 12:10:37;;;;;;;4.70;1.90;;;13.10;99.90;;;;;;5013062;28;20060;-90
2024/03/12 12:13:19;;;;;;;9.68;2.10;;;13.30;99.90;;;;;;4995733;28;20026;-90
2024/03/12 12:16:01;;;;;;;10.48;1.98;;;13.50;99.90;;;;;;5013387;28;20037;-90
2024/03/12 12:18:35;;;;;;;6.45;1.73;;;13.60;99.90;;;;;;4996364;28;20030;-92
2024/03/12 12:21:09;;;;;;;7.38;1.30;;;13.70;99.90;;;;;;5023098;28;20022;-92
2024/03/12 12:23:38;;;;;;;6.88;1.38;;;13.90;99.90;;;;;;5023095;28;20065;-91
2024/03/12 12:26:05;;;;;;;4.65;1.33;;;14.00;99.90;;;;;;5006416;28;20026;-92
2024/03/12 12:28:32;;;;;;;6.38;1.10;;;14.10;99.90;;;;;;5022926;28;20109;-92
2024/03/12 12:31:02;;;;;;;3.85;1.20;;;14.20;99.90;;;;;;5007737;28;20030;-92
2024/03/12 12:33:30;;;;;;;6.22;1.83;;;14.30;99.90;;;;;;5032928;28;20045;-92
2024/03/12 12:36:00;;;;;;;3.60;1.10;;;14.30;99.90;;;;;;5034659;28;20053;-91
2024/03/12 12:38:27;;;;;;;7.72;1.50;;;14.20;99.90;;;;;;5037937;28;20742;-87
2024/03/12 12:40:55;;;;;;;7.95;2.65;;;14.00;99.90;;;;;;4996195;28;20552;-88
2024/03/12 12:43:21;;;;;;;3.10;0.85;;;13.90;99.90;;;;;;5017089;28;20026;-92
2024/03/12 12:45:48;;;;;;;5.50;0.93;;;13.80;99.90;;;;;;5014625;28;20037;-91
2024/03/12 12:48:15;;;;;;;8.88;1.27;;;13.70;99.90;;;;;;5010625;28;20068;-92
2024/03/12 12:50:41;;;;;;;7.82;1.35;;;13.60;99.90;;;;;;5010726;28;20025;-92
2024/03/12 12:53:12;;;;;;;5.97;0.85;;;13.60;99.90;;;;;;4994038;28;20383;-91
2024/03/12 12:55:37;;;;;;;2.60;1.00;;;13.60;99.90;;;;;;5010477;28;20033;-91
2024/03/12 12:58:06;;;;;;;5.07;0.88;;;13.70;99.90;;;;;;5011260;28;20045;-90